This is the latest recevied weather packets stored in our database for station/object CX5ACA-13. If no packets are shown the sender has not sent any weather packets the latest 1 day(s).
| Time | Temp. | Humidity | Pressure | Rain* | Wind** | Luminosity | Snow |
|---|---|---|---|---|---|---|---|
| 1778096556 | 27.78° C | 77% | 1006.8 hPa | 0 mm | - | 108 W/m² | - |
| 1778096254 | 27.78° C | 77% | 1006.9 hPa | 0 mm | - | 120 W/m² | - |
| 1778095647 | 27.78° C | 77% | 1007.2 hPa | 0 mm | - | 143 W/m² | - |
| 1778094434 | 27.78° C | 77% | 1007.3 hPa | 0 mm | - | 189 W/m² | - |
| 1778093828 | 27.78° C | 77% | 1007.3 hPa | 0 mm | - | 212 W/m² | - |
| 1778092919 | 26.67° C | 78% | 1007.8 hPa | 0 mm | - | 123 W/m² | - |
| 1778092009 | 26.67° C | 78% | 1007.9 hPa | 0 mm | - | 116 W/m² | - |
| 1778091706 | 26.67° C | 78% | 1007.8 hPa | 0 mm | - | 209 W/m² | - |
| 1778090494 | 26.67° C | 78% | 1008.2 hPa | 0 mm | - | 347 W/m² | - |
| 1778088676 | 25.56° C | 79% | 1008.6 hPa | 0 mm | - | 411 W/m² | - |
| 1778083828 | 21.67° C | 93% | 1010.6 hPa | 0 mm | - | 31 W/m² | - |
| 1778081812 | 22.22° C | 92% | 1010.7 hPa | 0 mm | - | 69 W/m² | - |
| 1778081206 | 22.22° C | 92% | 1010.9 hPa | 0 mm | - | 51 W/m² | - |
| 1778079086 | 22.22° C | 91% | 1011.7 hPa | 0 mm | - | 104 W/m² | - |
| 1778078480 | 21.67° C | 92% | 1012.3 hPa | 0 mm | - | 162 W/m² | - |
| 1778078178 | 21.67° C | 92% | 1012.3 hPa | 0 mm | - | 162 W/m² | - |
| 1778077574 | 21.67° C | 92% | 1012.4 hPa | 0 mm | - | 160 W/m² | - |
| 1778077272 | 21.67° C | 92% | 1012.5 hPa | 0 mm | - | 148 W/m² | - |
| 1778075758 | 21.11° C | 92% | 1013.3 hPa | 0 mm | - | 150 W/m² | - |
| 1778074241 | 20° C | 94% | 1013.8 hPa | 0 mm | - | 99 W/m² | - |
| 1778072726 | 20° C | 93% | 1013.8 hPa | 0 mm | - | 107 W/m² | - |
| 1778071819 | 20.56° C | 92% | 1013.8 hPa | 0 mm | - | 91 W/m² | - |
| 1778070610 | 21.67° C | 90% | 1014 hPa | 0 mm | - | 59 W/m² | - |
| 1778069398 | 21.67° C | 89% | 1013.7 hPa | 0 mm | - | 164 W/m² | - |
| 1778068189 | 20° C | 94% | 1013.9 hPa | 0 mm | - | 62 W/m² | - |
* Rain latest hour (hover to see other rain measurements)
** Current wind speed in m/s (hover to see current wind gust speed)